createdAt,value
2022-10-11T00:21:03.726Z,26
2022-10-11T00:51:04.835Z,28
2022-10-11T01:21:05.464Z,27
2022-10-11T01:51:04.956Z,27
2022-10-11T02:21:08.865Z,26
2022-10-11T02:51:10.589Z,26
2022-10-11T03:21:10.465Z,29
2022-10-11T03:51:11.575Z,29
2022-10-11T04:21:09.560Z,27
2022-10-11T04:51:10.605Z,27
2022-10-11T05:21:04.815Z,33
2022-10-11T05:52:12.973Z,30
2022-10-11T06:22:06.662Z,35
2022-10-11T06:52:10.086Z,39
2022-10-11T07:22:09.286Z,43
2022-10-11T07:52:07.987Z,49
2022-10-11T08:22:12.565Z,42
2022-10-11T08:52:11.585Z,33
2022-10-11T09:22:09.159Z,32
2022-10-11T09:52:12.328Z,29
2022-10-11T10:22:10.157Z,29
2022-10-11T10:52:11.549Z,29
2022-10-11T11:22:10.597Z,31
2022-10-11T11:52:11.797Z,32
2022-10-11T12:22:11.527Z,30
2022-10-11T12:53:22.741Z,31
2022-10-11T13:23:18.179Z,32
2022-10-11T13:53:12.651Z,33
2022-10-11T14:23:15.169Z,33
2022-10-11T14:53:16.514Z,32
2022-10-11T15:23:14.620Z,33
2022-10-11T15:53:11.248Z,35
2022-10-11T16:23:10.886Z,35
2022-10-11T16:53:06.059Z,36
2022-10-11T17:23:07.666Z,35
2022-10-11T17:53:08.198Z,46
2022-10-11T18:23:03.483Z,45
2022-10-11T18:52:57.724Z,37
2022-10-11T19:22:55.389Z,38
2022-10-11T19:52:53.297Z,41
2022-10-11T20:22:53.846Z,43
2022-10-11T20:52:52.400Z,43
2022-10-11T21:22:52.440Z,43
2022-10-11T21:52:50.277Z,45
2022-10-11T22:22:50.659Z,39
2022-10-11T22:52:53.519Z,37
2022-10-11T23:22:49.012Z,38
2022-10-11T23:52:51.430Z,37
